createdAt,value
2022-11-12T00:02:09.694Z,16.17
2022-11-12T00:04:36.657Z,19.23
2022-11-12T00:07:03.674Z,18.50
2022-11-12T00:09:30.678Z,15.93
2022-11-12T00:11:58.961Z,17.00
2022-11-12T00:14:26.055Z,17.00
2022-11-12T00:16:56.030Z,18.30
2022-11-12T00:19:23.047Z,19.13
2022-11-12T00:21:55.749Z,17.57
2022-11-12T00:24:22.966Z,24.73
2022-11-12T00:26:49.888Z,22.70
2022-11-12T00:29:18.296Z,19.77
2022-11-12T00:31:45.258Z,20.00
2022-11-12T00:34:12.317Z,29.90
2022-11-12T00:36:43.767Z,18.67
2022-11-12T00:39:10.878Z,20.90
2022-11-12T00:41:37.850Z,20.83
2022-11-12T00:44:05.222Z,27.23
2022-11-12T00:46:36.293Z,22.03
2022-11-12T00:49:03.486Z,21.00
2022-11-12T00:51:33.483Z,20.13
2022-11-12T00:54:00.632Z,20.50
2022-11-12T00:56:31.709Z,21.70
2022-11-12T00:59:01.688Z,16.40
2022-11-12T01:01:32.922Z,16.53
2022-11-12T01:04:03.609Z,17.37
2022-11-12T01:06:30.724Z,17.13
2022-11-12T01:09:04.115Z,15.30
2022-11-12T01:11:31.167Z,25.60
2022-11-12T01:14:00.354Z,25.23
2022-11-12T01:16:30.330Z,16.00
2022-11-12T01:19:07.329Z,15.07
2022-11-12T01:21:41.638Z,17.60
2022-11-12T01:24:09.802Z,15.50
2022-11-12T01:26:37.240Z,16.58
2022-11-12T01:29:05.330Z,16.20
2022-11-12T01:31:34.840Z,15.67
2022-11-12T01:34:10.036Z,13.33
2022-11-12T01:36:39.407Z,13.77
2022-11-12T01:39:10.202Z,13.15
2022-11-12T01:41:40.101Z,14.20
2022-11-12T01:44:14.338Z,15.13
2022-11-12T01:47:00.951Z,12.30
2022-11-12T01:49:39.894Z,13.00
2022-11-12T01:52:14.690Z,13.87
2022-11-12T01:54:49.593Z,11.50
2022-11-12T01:57:20.422Z,12.17
2022-11-12T01:59:50.542Z,11.33
2022-11-12T02:02:20.424Z,27.40
2022-11-12T02:04:50.564Z,11.50
2022-11-12T02:07:19.069Z,11.27
2022-11-12T02:09:46.280Z,14.27
2022-11-12T02:12:37.855Z,10.70
2022-11-12T02:15:06.698Z,10.47
2022-11-12T02:17:34.635Z,11.20
2022-11-12T02:20:09.470Z,12.00
2022-11-12T02:22:37.743Z,11.30
2022-11-12T02:25:05.968Z,10.27
2022-11-12T02:27:33.241Z,10.30
2022-11-12T02:30:07.405Z,14.07
2022-11-12T02:32:40.824Z,9.90
2022-11-12T02:35:08.468Z,8.93
2022-11-12T02:37:39.686Z,9.57
2022-11-12T02:40:10.765Z,8.20
2022-11-12T02:42:40.694Z,13.33
2022-11-12T02:45:11.466Z,8.47
2022-11-12T02:47:38.374Z,8.77
2022-11-12T02:50:06.606Z,7.90
2022-11-12T02:52:39.384Z,8.10
2022-11-12T02:55:12.473Z,7.97
2022-11-12T02:57:40.756Z,11.83
2022-11-12T03:00:14.666Z,8.70
2022-11-12T03:02:58.885Z,8.80
2022-11-12T03:05:36.942Z,9.97
2022-11-12T03:08:06.935Z,9.20
2022-11-12T03:10:38.334Z,10.23
2022-11-12T03:13:06.178Z,8.73
2022-11-12T03:15:33.167Z,9.83
2022-11-12T03:18:00.496Z,11.37
2022-11-12T03:20:28.592Z,10.73
2022-11-12T03:23:04.694Z,9.60
2022-11-12T03:25:32.415Z,12.07
2022-11-12T03:28:03.329Z,10.70
2022-11-12T03:30:34.912Z,10.03
2022-11-12T03:33:01.965Z,9.90
2022-11-12T03:35:32.327Z,9.00
2022-11-12T03:37:59.530Z,6.53
2022-11-12T03:40:30.689Z,7.30
2022-11-12T03:43:01.799Z,6.37
2022-11-12T03:45:31.952Z,6.93
2022-11-12T03:48:02.331Z,7.00
2022-11-12T03:50:35.502Z,14.75
2022-11-12T03:53:05.117Z,7.70
2022-11-12T03:55:41.388Z,8.40
2022-11-12T03:58:12.800Z,10.48
2022-11-12T04:00:39.975Z,6.88
2022-11-12T04:03:10.238Z,10.05
2022-11-12T04:05:55.957Z,7.13
2022-11-12T04:08:37.086Z,9.23
2022-11-12T04:11:08.766Z,13.43
2022-11-12T04:13:38.547Z,9.75
2022-11-12T04:16:30.767Z,6.75
2022-11-12T04:19:18.502Z,9.03
2022-11-12T04:21:55.207Z,12.48
2022-11-12T04:24:48.225Z,9.10
2022-11-12T04:27:17.388Z,9.82
2022-11-12T04:30:05.732Z,8.88
2022-11-12T04:32:36.646Z,7.65
2022-11-12T04:35:05.660Z,10.70
2022-11-12T04:37:47.862Z,10.80
2022-11-12T04:40:35.751Z,11.15
2022-11-12T04:43:27.347Z,8.07
2022-11-12T04:45:56.736Z,9.73
2022-11-12T04:48:25.828Z,9.57
2022-11-12T04:50:56.970Z,13.82
2022-11-12T04:53:24.628Z,8.77
2022-11-12T04:55:52.321Z,18.13
2022-11-12T04:58:22.511Z,9.48
2022-11-12T05:00:50.774Z,8.30
2022-11-12T05:03:21.823Z,8.97
2022-11-12T05:05:48.759Z,9.03
2022-11-12T05:08:18.550Z,6.73
2022-11-12T05:10:47.539Z,11.97
2022-11-12T05:13:14.613Z,12.77
2022-11-12T05:15:43.771Z,7.78
2022-11-12T05:18:10.675Z,8.68
2022-11-12T05:20:42.237Z,9.23
2022-11-12T05:23:09.160Z,7.80
2022-11-12T05:25:39.031Z,8.60
2022-11-12T05:28:07.143Z,8.80
2022-11-12T05:30:35.388Z,10.30
2022-11-12T05:33:05.158Z,10.45
2022-11-12T05:35:38.368Z,9.53
2022-11-12T05:38:06.718Z,9.10
2022-11-12T05:40:33.597Z,9.02
2022-11-12T05:43:03.760Z,7.60
2022-11-12T05:45:30.697Z,10.07
2022-11-12T05:48:00.901Z,8.50
2022-11-12T05:50:34.873Z,7.80
2022-11-12T05:53:08.511Z,11.00
2022-11-12T05:55:37.111Z,10.50
2022-11-12T05:58:05.968Z,8.73
2022-11-12T06:00:41.116Z,8.90
2022-11-12T06:03:14.863Z,9.10
2022-11-12T06:05:44.067Z,9.80
2022-11-12T06:08:21.974Z,16.02
2022-11-12T06:10:49.530Z,8.73
2022-11-12T06:13:17.006Z,9.90
2022-11-12T06:15:44.260Z,9.03
2022-11-12T06:18:21.567Z,11.00
2022-11-12T06:21:07.532Z,10.37
2022-11-12T06:23:36.088Z,13.40
2022-11-12T06:26:06.376Z,12.47
2022-11-12T06:28:33.332Z,11.33
2022-11-12T06:31:03.490Z,9.02
2022-11-12T06:33:30.686Z,8.60
2022-11-12T06:36:02.955Z,12.77
2022-11-12T06:38:37.258Z,9.00
2022-11-12T06:41:05.143Z,8.13
2022-11-12T06:43:33.647Z,6.75
2022-11-12T06:46:05.064Z,8.82
2022-11-12T06:48:32.268Z,7.05
2022-11-12T06:51:05.204Z,6.97
2022-11-12T06:53:36.696Z,9.50
2022-11-12T06:56:05.272Z,7.97
2022-11-12T06:58:32.593Z,12.38
2022-11-12T07:01:35.688Z,6.95
2022-11-12T07:04:02.871Z,5.65
2022-11-12T07:06:29.982Z,6.03
2022-11-12T07:08:58.296Z,7.40
2022-11-12T07:11:25.453Z,6.65
2022-11-12T07:13:59.943Z,7.47
2022-11-12T07:16:26.899Z,6.00
2022-11-12T07:18:53.902Z,6.05
2022-11-12T07:21:21.283Z,6.03
2022-11-12T07:23:48.438Z,6.82
2022-11-12T07:26:20.611Z,5.68
2022-11-12T07:28:56.572Z,5.70
2022-11-12T07:31:23.760Z,4.83
2022-11-12T07:34:00.941Z,6.37
2022-11-12T07:36:28.075Z,6.50
2022-11-12T07:38:55.096Z,6.13
2022-11-12T07:41:25.293Z,5.40
2022-11-12T07:43:53.873Z,6.43
2022-11-12T07:46:28.103Z,5.97
2022-11-12T07:49:13.396Z,4.75
2022-11-12T07:51:43.421Z,5.00
2022-11-12T07:54:15.146Z,7.13
2022-11-12T07:56:43.629Z,6.40
2022-11-12T07:59:12.987Z,5.50
2022-11-12T08:01:41.716Z,5.83
2022-11-12T08:04:10.567Z,6.00
2022-11-12T08:06:40.891Z,5.25
2022-11-12T08:09:08.990Z,6.22
2022-11-12T08:11:36.222Z,5.30
2022-11-12T08:14:10.870Z,7.70
2022-11-12T08:16:37.890Z,8.00
2022-11-12T08:19:04.959Z,6.47
2022-11-12T08:21:31.951Z,7.73
2022-11-12T08:24:02.230Z,6.27
2022-11-12T08:26:29.506Z,6.90
2022-11-12T08:28:56.540Z,6.37
2022-11-12T08:31:27.621Z,7.47
2022-11-12T08:33:54.626Z,6.77
2022-11-12T08:36:22.230Z,6.90
2022-11-12T08:38:54.602Z,7.60
2022-11-12T08:41:30.586Z,8.20
2022-11-12T08:44:04.248Z,6.90
2022-11-12T08:46:36.480Z,6.00
2022-11-12T08:49:06.302Z,6.83
2022-11-12T08:51:36.853Z,8.73
2022-11-12T08:54:04.133Z,9.60
2022-11-12T08:56:36.561Z,9.07
2022-11-12T08:59:07.506Z,9.00
2022-11-12T09:01:36.094Z,8.73
2022-11-12T09:04:03.200Z,10.10
2022-11-12T09:06:33.111Z,9.80
2022-11-12T09:09:00.326Z,10.07
2022-11-12T09:11:27.410Z,10.10
2022-11-12T09:13:57.260Z,10.40
2022-11-12T09:16:27.317Z,10.53
2022-11-12T09:18:55.662Z,10.30
2022-11-12T09:21:25.394Z,10.30
2022-11-12T09:23:52.403Z,10.03
2022-11-12T09:26:20.801Z,13.10
2022-11-12T09:28:59.754Z,11.03
2022-11-12T09:31:26.738Z,14.70
2022-11-12T09:33:58.014Z,12.03
2022-11-12T09:36:30.367Z,14.20
2022-11-12T09:38:57.331Z,11.27
2022-11-12T09:41:37.201Z,13.00
2022-11-12T09:44:09.278Z,14.97
2022-11-12T09:46:52.730Z,12.60
2022-11-12T09:49:25.967Z,16.20
2022-11-12T09:52:01.585Z,13.50
2022-11-12T09:54:32.541Z,15.80
2022-11-12T09:57:02.384Z,13.83
2022-11-12T09:59:33.108Z,15.37
2022-11-12T10:02:11.592Z,14.80
2022-11-12T10:05:06.972Z,13.87
2022-11-12T10:07:49.711Z,18.40
2022-11-12T10:10:39.611Z,13.10
2022-11-12T10:13:26.378Z,17.23
2022-11-12T10:16:26.569Z,14.03
2022-11-12T10:19:25.733Z,14.47
2022-11-12T10:22:04.660Z,15.00
2022-11-12T10:24:43.436Z,13.73
2022-11-12T10:27:19.928Z,15.67
2022-11-12T10:30:02.339Z,14.33
2022-11-12T10:32:31.965Z,13.17
2022-11-12T10:35:05.383Z,13.20
2022-11-12T10:37:49.937Z,19.23
2022-11-12T10:40:40.331Z,18.87
2022-11-12T10:43:26.023Z,15.77
2022-11-12T10:46:19.323Z,15.13
2022-11-12T10:48:57.493Z,15.93
2022-11-12T10:51:32.161Z,17.77
2022-11-12T10:54:20.273Z,17.80
2022-11-12T10:56:55.812Z,20.63
2022-11-12T10:59:24.105Z,17.50
2022-11-12T11:01:57.244Z,22.10
2022-11-12T11:04:32.691Z,21.10
2022-11-12T11:07:06.601Z,16.67
2022-11-12T11:09:35.214Z,17.43
2022-11-12T11:12:02.495Z,15.27
2022-11-12T11:14:38.163Z,17.60
2022-11-12T11:17:09.641Z,17.97
2022-11-12T11:19:40.270Z,18.20
2022-11-12T11:22:46.224Z,19.73
2022-11-12T11:25:22.821Z,17.93
2022-11-12T11:28:04.931Z,15.07
2022-11-12T11:30:32.842Z,19.47
2022-11-12T11:33:24.768Z,18.13
2022-11-12T11:36:07.838Z,17.50
2022-11-12T11:38:49.933Z,15.67
2022-11-12T11:41:48.650Z,21.10
2022-11-12T11:44:30.997Z,18.90
2022-11-12T11:47:59.395Z,16.80
2022-11-12T11:50:29.650Z,15.70
2022-11-12T11:53:18.838Z,15.10
2022-11-12T11:55:57.898Z,13.47
2022-11-12T11:58:53.459Z,16.87
2022-11-12T12:01:38.618Z,15.67
2022-11-12T12:04:48.549Z,20.67
2022-11-12T12:07:32.772Z,17.63
2022-11-12T12:10:09.506Z,17.93
2022-11-12T12:12:54.546Z,19.10
2022-11-12T12:16:10.917Z,18.70
2022-11-12T12:18:52.288Z,22.63
2022-11-12T12:21:23.262Z,18.83
2022-11-12T12:23:57.358Z,17.67
2022-11-12T12:26:32.873Z,20.87
2022-11-12T12:29:07.221Z,21.57
2022-11-12T12:31:40.296Z,19.77
2022-11-12T12:34:19.226Z,21.33
2022-11-12T12:36:50.482Z,22.43
2022-11-12T12:39:20.845Z,20.70
2022-11-12T12:41:55.601Z,25.80
2022-11-12T12:44:59.051Z,21.93
2022-11-12T12:47:36.887Z,18.60
2022-11-12T12:50:17.845Z,18.30
2022-11-12T12:53:25.548Z,19.40
2022-11-12T12:55:54.734Z,24.27
2022-11-12T12:58:30.853Z,25.27
2022-11-12T13:01:04.352Z,26.00
2022-11-12T13:04:04.614Z,22.30
2022-11-12T13:06:34.935Z,15.63
2022-11-12T13:09:06.517Z,20.10
2022-11-12T13:12:05.568Z,16.77
2022-11-12T13:15:08.853Z,18.43
2022-11-12T13:17:46.108Z,19.70
2022-11-12T13:20:38.010Z,18.50
2022-11-12T13:24:04.083Z,15.90
2022-11-12T13:26:58.350Z,15.57
2022-11-12T13:29:50.298Z,16.33
2022-11-12T13:32:38.113Z,15.47
2022-11-12T13:35:45.227Z,18.27
2022-11-12T13:38:17.487Z,17.03
2022-11-12T13:40:47.430Z,17.13
2022-11-12T13:43:35.289Z,17.60
2022-11-12T13:46:29.572Z,19.00
2022-11-12T13:49:08.653Z,16.80
2022-11-12T13:51:45.116Z,18.17
2022-11-12T13:54:38.469Z,16.87
2022-11-12T13:57:33.203Z,16.33
2022-11-12T14:00:26.901Z,17.70
2022-11-12T14:02:58.141Z,20.13
2022-11-12T14:05:31.197Z,17.67
2022-11-12T14:08:30.487Z,16.40
2022-11-12T14:11:18.021Z,20.97
2022-11-12T14:14:11.174Z,20.23
2022-11-12T14:17:02.923Z,17.20
2022-11-12T14:23:25.442Z,21.60
2022-11-12T14:25:55.617Z,21.40
2022-11-12T14:28:29.340Z,20.00
2022-11-12T14:30:58.945Z,20.70
2022-11-12T14:33:32.833Z,22.20
2022-11-12T14:36:03.520Z,20.00
2022-11-12T14:38:37.141Z,22.33
2022-11-12T14:41:15.624Z,19.23
2022-11-12T14:43:45.901Z,23.73
2022-11-12T14:46:27.940Z,21.40
2022-11-12T14:49:03.430Z,20.10
2022-11-12T14:51:42.920Z,21.70
2022-11-12T14:54:18.952Z,22.47
2022-11-12T14:56:48.937Z,23.77
2022-11-12T14:59:17.268Z,30.80
2022-11-12T15:04:59.519Z,28.73
2022-11-12T15:07:29.411Z,24.50
2022-11-12T15:09:58.008Z,26.20
2022-11-12T15:12:28.790Z,25.60
2022-11-12T15:15:09.887Z,24.30
2022-11-12T15:17:37.633Z,26.23
2022-11-12T15:20:14.433Z,33.83
2022-11-12T15:22:41.632Z,28.97
2022-11-12T15:25:23.701Z,28.40
2022-11-12T15:27:51.037Z,27.03
2022-11-12T15:30:28.919Z,29.20
2022-11-12T15:33:13.764Z,26.93
2022-11-12T15:35:56.398Z,26.67
2022-11-12T15:38:27.687Z,26.20
2022-11-12T15:40:57.924Z,27.33
2022-11-12T15:43:34.374Z,30.67
2022-11-12T15:46:02.337Z,27.87
2022-11-12T15:48:35.259Z,25.73
2022-11-12T15:51:07.592Z,30.90
2022-11-12T15:53:34.533Z,29.43
2022-11-12T15:56:08.811Z,32.87
2022-11-12T15:58:40.433Z,29.03
2022-11-12T16:01:12.771Z,33.67
2022-11-12T16:03:41.170Z,34.80
2022-11-12T16:06:11.127Z,31.97
2022-11-12T16:08:41.251Z,35.97
2022-11-12T16:11:31.904Z,30.23
2022-11-12T16:14:26.157Z,31.90
2022-11-12T16:16:53.653Z,33.80
2022-11-12T16:19:20.619Z,37.20
2022-11-12T16:21:47.565Z,33.50
2022-11-12T16:24:14.872Z,32.30
2022-11-12T16:26:43.307Z,33.23
2022-11-12T16:29:13.647Z,36.97
2022-11-12T16:31:46.989Z,37.97
2022-11-12T16:34:13.978Z,38.10
2022-11-12T16:36:52.914Z,39.47
2022-11-12T16:39:19.841Z,35.83
2022-11-12T16:41:51.579Z,43.77
2022-11-12T16:44:18.566Z,41.20
2022-11-12T16:46:48.541Z,35.07
2022-11-12T16:49:23.306Z,34.03
2022-11-12T16:51:53.116Z,37.03
2022-11-12T16:54:23.152Z,34.00
2022-11-12T16:57:03.720Z,32.00
2022-11-12T16:59:33.775Z,29.20
2022-11-12T17:02:03.299Z,27.10
2022-11-12T17:04:36.237Z,31.17
2022-11-12T17:07:06.487Z,33.53
2022-11-12T17:09:33.785Z,32.80
2022-11-12T17:12:00.700Z,35.30
2022-11-12T17:14:31.227Z,37.40
2022-11-12T17:16:58.186Z,33.10
2022-11-12T17:19:28.342Z,36.40
2022-11-12T17:22:01.642Z,32.90
2022-11-12T17:24:29.147Z,34.23
2022-11-12T17:27:05.230Z,27.83
2022-11-12T17:29:36.122Z,30.20
2022-11-12T17:32:06.193Z,33.10
2022-11-12T17:34:33.497Z,32.67
2022-11-12T17:37:02.871Z,31.40
2022-11-12T17:39:32.882Z,31.43
2022-11-12T17:41:59.928Z,27.43
2022-11-12T17:44:26.883Z,25.73
2022-11-12T17:46:55.230Z,28.20
2022-11-12T17:49:25.221Z,30.37
2022-11-12T17:51:52.956Z,26.83
2022-11-12T17:54:21.237Z,26.67
2022-11-12T17:56:54.271Z,26.90
2022-11-12T17:59:24.449Z,28.50
2022-11-12T18:01:56.426Z,28.70
2022-11-12T18:04:31.017Z,30.17
2022-11-12T18:06:58.791Z,32.50
2022-11-12T18:09:25.757Z,34.50
2022-11-12T18:11:56.760Z,35.93
2022-11-12T18:14:29.975Z,40.27
2022-11-12T18:17:01.319Z,34.07
2022-11-12T18:19:28.344Z,33.70
2022-11-12T18:21:59.035Z,42.97
2022-11-12T18:24:31.591Z,35.33
2022-11-12T18:26:58.558Z,37.27
2022-11-12T18:29:28.447Z,43.97
2022-11-12T18:31:55.597Z,39.57
2022-11-12T18:34:26.117Z,31.67
2022-11-12T18:36:53.185Z,35.33
2022-11-12T18:39:20.136Z,28.57
2022-11-12T18:41:47.176Z,33.03
2022-11-12T18:44:14.337Z,30.30
2022-11-12T18:46:44.443Z,34.47
2022-11-12T18:49:11.446Z,33.90
2022-11-12T18:51:46.385Z,37.33
2022-11-12T18:54:14.116Z,30.57
2022-11-12T18:56:42.526Z,32.90
2022-11-12T18:59:24.694Z,31.27
2022-11-12T19:01:51.922Z,33.50
2022-11-12T19:04:25.529Z,37.50
2022-11-12T19:06:59.959Z,43.30
2022-11-12T19:09:27.168Z,38.23
2022-11-12T19:12:01.215Z,39.10
2022-11-12T19:14:29.707Z,39.23
2022-11-12T19:16:59.378Z,43.33
2022-11-12T19:19:27.037Z,41.30
2022-11-12T19:21:57.489Z,44.67
2022-11-12T19:24:38.313Z,38.63
2022-11-12T19:27:10.752Z,51.37
2022-11-12T19:29:37.792Z,43.80
2022-11-12T19:32:07.456Z,40.47
2022-11-12T19:34:51.031Z,41.97
2022-11-12T19:37:37.200Z,39.90
2022-11-12T19:40:07.997Z,48.47
2022-11-12T19:42:35.067Z,50.73
2022-11-12T19:45:02.782Z,40.13
2022-11-12T19:47:33.155Z,41.93
2022-11-12T19:50:00.257Z,34.90
2022-11-12T19:52:30.039Z,63.60
2022-11-12T19:55:00.921Z,48.53
2022-11-12T19:57:35.729Z,40.70
2022-11-12T20:00:10.298Z,38.73
2022-11-12T20:02:37.560Z,33.60
2022-11-12T20:05:06.625Z,39.10
2022-11-12T20:07:43.725Z,39.23
2022-11-12T20:10:15.707Z,36.00
2022-11-12T20:12:45.188Z,34.33
2022-11-12T20:15:13.372Z,47.23
2022-11-12T20:17:40.833Z,43.20
2022-11-12T20:20:11.963Z,37.10
2022-11-12T20:22:38.854Z,36.90
2022-11-12T20:25:07.799Z,35.60
2022-11-12T20:27:35.035Z,28.27
2022-11-12T20:30:05.193Z,32.63
2022-11-12T20:32:32.130Z,37.13
2022-11-12T20:34:59.494Z,32.75
2022-11-12T20:37:30.436Z,27.13
2022-11-12T20:39:57.483Z,29.97
2022-11-12T20:42:24.407Z,31.93
2022-11-12T20:44:51.404Z,31.40
2022-11-12T20:47:28.839Z,33.67
2022-11-12T20:49:55.854Z,34.80
2022-11-12T20:52:25.222Z,31.75
2022-11-12T20:54:52.383Z,32.80
2022-11-12T20:57:19.350Z,31.47
2022-11-12T20:59:49.137Z,31.70
2022-11-12T21:02:31.208Z,29.83
2022-11-12T21:04:59.590Z,30.20
2022-11-12T21:07:35.852Z,27.27
2022-11-12T21:10:03.666Z,35.43
2022-11-12T21:12:31.032Z,32.92
2022-11-12T21:14:58.049Z,29.80
2022-11-12T21:17:28.011Z,40.20
2022-11-12T21:20:04.193Z,27.77
2022-11-12T21:22:37.781Z,26.73
2022-11-12T21:25:10.880Z,38.27
2022-11-12T21:27:37.938Z,26.90
2022-11-12T21:30:09.879Z,28.97
2022-11-12T21:32:42.834Z,28.87
2022-11-12T21:35:14.327Z,27.67
2022-11-12T21:37:41.758Z,26.93
2022-11-12T21:40:18.841Z,25.07
2022-11-12T21:42:48.680Z,33.63
2022-11-12T21:45:19.135Z,68.83
2022-11-12T21:47:55.484Z,42.27
2022-11-12T21:50:23.737Z,41.63
2022-11-12T21:52:57.420Z,40.30
2022-11-12T21:55:24.389Z,54.53
2022-11-12T21:57:52.024Z,35.40
2022-11-12T22:00:41.637Z,32.72
2022-11-12T22:03:12.096Z,25.13
2022-11-12T22:05:40.392Z,31.75
2022-11-12T22:08:07.353Z,29.33
2022-11-12T22:10:39.540Z,27.15
2022-11-12T22:13:25.775Z,29.40
2022-11-12T22:15:53.584Z,24.83
2022-11-12T22:18:20.644Z,23.70
2022-11-12T22:20:57.734Z,42.87
2022-11-12T22:23:32.924Z,26.80
2022-11-12T22:26:03.009Z,25.02
2022-11-12T22:28:30.592Z,21.55
2022-11-12T22:31:04.295Z,29.75
2022-11-12T22:33:35.012Z,27.25
2022-11-12T22:36:05.419Z,21.30
2022-11-12T22:38:34.572Z,22.90
2022-11-12T22:41:04.176Z,23.23
2022-11-12T22:43:32.567Z,25.80
2022-11-12T22:46:07.942Z,22.17
2022-11-12T22:48:35.215Z,21.92
2022-11-12T22:51:14.439Z,19.20
2022-11-12T22:53:41.710Z,22.63
2022-11-12T22:56:15.157Z,22.08
2022-11-12T22:58:45.060Z,31.10
2022-11-12T23:01:21.921Z,24.40
2022-11-12T23:03:54.855Z,26.52
2022-11-12T23:06:24.237Z,23.80
2022-11-12T23:08:59.037Z,24.38
2022-11-12T23:11:29.293Z,22.20
2022-11-12T23:13:59.338Z,24.60
2022-11-12T23:16:33.127Z,23.95
2022-11-12T23:19:02.955Z,27.85
2022-11-12T23:21:33.761Z,20.13
2022-11-12T23:24:00.703Z,23.08
2022-11-12T23:26:31.020Z,21.52
2022-11-12T23:28:58.107Z,22.77
2022-11-12T23:31:34.247Z,20.73
2022-11-12T23:34:01.798Z,24.63
2022-11-12T23:36:35.893Z,24.67
2022-11-12T23:39:05.823Z,22.08
2022-11-12T23:41:32.787Z,24.45
2022-11-12T23:44:03.018Z,19.60
2022-11-12T23:46:32.450Z,17.52
2022-11-12T23:49:02.849Z,16.80
2022-11-12T23:51:29.775Z,18.52
2022-11-12T23:53:58.168Z,16.95
2022-11-12T23:56:33.826Z,17.75
2022-11-12T23:59:06.989Z,16.98
